createdAt,value
2023-05-30T00:01:52.556Z,99434.66
2023-05-30T00:04:21.390Z,99429.00
2023-05-30T00:06:48.377Z,99434.97
2023-05-30T00:09:15.771Z,99436.56
2023-05-30T00:11:42.880Z,99431.13
2023-05-30T00:14:10.016Z,99431.13
2023-05-30T00:16:37.047Z,99429.47
2023-05-30T00:19:05.823Z,99431.88
2023-05-30T00:21:33.080Z,99431.56
2023-05-30T00:24:00.035Z,99433.72
2023-05-30T00:26:27.650Z,99431.22
2023-05-30T00:28:55.378Z,99429.34
2023-05-30T00:31:22.548Z,99429.91
2023-05-30T00:33:50.083Z,99424.00
2023-05-30T00:36:17.738Z,99422.94
2023-05-30T00:38:44.728Z,99430.50
2023-05-30T00:41:11.592Z,99428.03
2023-05-30T00:43:38.924Z,99427.53
2023-05-30T00:46:05.960Z,99428.34
2023-05-30T00:48:32.840Z,99429.69
2023-05-30T00:51:01.212Z,99424.50
2023-05-30T00:53:28.085Z,99426.41
2023-05-30T00:55:55.075Z,99415.31
2023-05-30T00:58:22.645Z,99414.16
2023-05-30T01:00:51.020Z,99426.31
2023-05-30T01:03:23.698Z,99426.63
2023-05-30T01:05:50.775Z,99424.56
2023-05-30T01:08:20.390Z,99425.66
2023-05-30T01:10:48.922Z,99425.38
2023-05-30T01:13:22.294Z,99417.53
2023-05-30T01:15:59.663Z,99418.63
2023-05-30T01:18:27.164Z,99417.00
2023-05-30T01:21:00.810Z,99413.50
2023-05-30T01:23:42.594Z,99420.88
2023-05-30T01:26:28.653Z,99421.75
2023-05-30T01:28:57.198Z,99416.56
2023-05-30T01:31:25.648Z,99425.44
2023-05-30T01:33:53.829Z,99424.84
2023-05-30T01:36:21.632Z,99416.81
2023-05-30T01:38:51.260Z,99412.63
2023-05-30T01:41:21.043Z,99418.13
2023-05-30T01:44:02.914Z,99419.22
2023-05-30T01:46:32.555Z,99406.94
2023-05-30T01:49:18.600Z,99416.16
2023-05-30T01:51:46.347Z,99413.44
2023-05-30T01:54:14.426Z,99411.63
2023-05-30T01:56:42.068Z,99411.47
2023-05-30T01:59:09.352Z,99415.94
2023-05-30T02:01:37.825Z,99417.06
2023-05-30T02:04:05.590Z,99402.94
2023-05-30T02:06:33.280Z,99415.69
2023-05-30T02:09:00.207Z,99407.13
2023-05-30T02:11:27.304Z,99417.22
2023-05-30T02:13:54.896Z,99412.13
2023-05-30T02:16:21.938Z,99417.06
2023-05-30T02:18:49.447Z,99418.84
2023-05-30T02:21:16.356Z,99417.66
2023-05-30T02:23:43.561Z,99419.22
2023-05-30T02:26:10.639Z,99416.56
2023-05-30T02:28:37.642Z,99410.97
2023-05-30T02:31:04.564Z,99412.44
2023-05-30T02:33:31.508Z,99417.38
2023-05-30T02:35:58.656Z,99416.38
2023-05-30T02:38:25.603Z,99423.25
2023-05-30T02:40:52.848Z,99423.59
2023-05-30T02:43:21.545Z,99416.91
2023-05-30T02:45:50.318Z,99421.28
2023-05-30T02:48:19.414Z,99419.47
2023-05-30T02:50:46.383Z,99423.81
2023-05-30T02:53:18.043Z,99422.25
2023-05-30T02:55:48.162Z,99425.25
2023-05-30T02:58:41.715Z,99411.44
2023-05-30T03:01:29.961Z,99422.03
2023-05-30T03:03:57.103Z,99413.63
2023-05-30T03:06:33.090Z,99412.88
2023-05-30T03:09:17.692Z,99409.66
2023-05-30T03:11:47.976Z,99412.66
2023-05-30T03:14:15.276Z,99412.22
2023-05-30T03:16:43.992Z,99406.25
2023-05-30T03:19:15.197Z,99408.41
2023-05-30T03:21:42.291Z,99408.78
2023-05-30T03:24:14.016Z,99417.41
2023-05-30T03:26:45.561Z,99411.56
2023-05-30T03:29:14.847Z,99417.25
2023-05-30T03:31:42.078Z,99423.31
2023-05-30T03:34:10.771Z,99420.44
2023-05-30T03:36:38.410Z,99428.59
2023-05-30T03:39:09.583Z,99426.94
2023-05-30T03:41:36.742Z,99423.06
2023-05-30T03:44:03.896Z,99423.53
2023-05-30T03:46:35.277Z,99431.69
2023-05-30T03:49:02.496Z,99423.56
2023-05-30T03:51:29.602Z,99426.53
2023-05-30T03:53:56.502Z,99433.34
2023-05-30T03:56:23.462Z,99422.09
2023-05-30T03:58:53.038Z,99421.59
2023-05-30T04:01:38.727Z,99425.75
2023-05-30T04:04:05.982Z,99429.84
2023-05-30T04:06:43.860Z,99423.84
2023-05-30T04:09:11.109Z,99426.31
2023-05-30T04:11:37.998Z,99427.16
2023-05-30T04:14:05.001Z,99429.69
2023-05-30T04:16:31.989Z,99428.91
2023-05-30T04:18:59.772Z,99434.19
2023-05-30T04:21:28.414Z,99427.41
2023-05-30T04:23:56.475Z,99420.38
2023-05-30T04:26:24.269Z,99420.09
2023-05-30T04:28:51.663Z,99417.91
2023-05-30T04:31:33.711Z,99421.97
2023-05-30T04:34:04.138Z,99432.84
2023-05-30T04:36:35.830Z,99426.81
2023-05-30T04:39:03.708Z,99427.34
2023-05-30T04:41:31.458Z,99417.19
2023-05-30T04:44:02.043Z,99412.66
2023-05-30T04:46:29.839Z,99409.69
2023-05-30T04:49:03.013Z,99407.38
2023-05-30T04:51:34.277Z,99406.84
2023-05-30T04:54:02.031Z,99405.50
2023-05-30T04:56:28.965Z,99401.16
2023-05-30T04:58:55.862Z,99409.38
2023-05-30T05:01:25.335Z,99413.50
2023-05-30T05:03:52.916Z,99409.06
2023-05-30T05:06:20.081Z,99414.19
2023-05-30T05:08:47.171Z,99407.41
2023-05-30T05:11:14.724Z,99410.19
2023-05-30T05:13:41.665Z,99402.50
2023-05-30T05:16:08.622Z,99403.75
2023-05-30T05:18:35.689Z,99402.34
2023-05-30T05:21:03.284Z,99404.81
2023-05-30T05:23:30.709Z,99407.78
2023-05-30T05:26:09.068Z,99414.28
2023-05-30T05:28:36.120Z,99414.63
2023-05-30T05:31:03.021Z,99418.50
2023-05-30T05:33:30.031Z,99413.16
2023-05-30T05:35:57.021Z,99416.50
2023-05-30T05:38:23.913Z,99411.31
2023-05-30T05:40:50.836Z,99405.53
2023-05-30T05:43:17.853Z,99404.91
2023-05-30T05:45:45.067Z,99393.44
2023-05-30T05:48:12.108Z,99403.69
2023-05-30T05:50:39.036Z,99402.91
2023-05-30T05:53:05.958Z,99397.28
2023-05-30T05:55:32.884Z,99399.72
2023-05-30T05:57:59.897Z,99398.41
2023-05-30T06:00:26.856Z,99393.72
2023-05-30T06:02:53.953Z,99400.44
2023-05-30T06:05:21.040Z,99406.38
2023-05-30T06:07:50.216Z,99397.06
2023-05-30T06:10:19.781Z,99408.22
2023-05-30T06:12:47.602Z,99398.50
2023-05-30T06:15:14.568Z,99401.47
2023-05-30T06:17:42.211Z,99393.09
2023-05-30T06:20:09.492Z,99391.28
2023-05-30T06:22:38.305Z,99392.63
2023-05-30T06:25:05.888Z,99386.31
2023-05-30T06:27:34.015Z,99377.66
2023-05-30T06:30:02.019Z,99388.44
2023-05-30T06:32:31.012Z,99377.84
2023-05-30T06:34:58.099Z,99365.84
2023-05-30T06:37:24.983Z,99380.47
2023-05-30T06:39:51.918Z,99371.78
2023-05-30T06:42:21.988Z,99366.03
2023-05-30T06:44:49.258Z,99381.31
2023-05-30T06:47:16.202Z,99375.03
2023-05-30T06:49:43.456Z,99379.38
2023-05-30T06:52:11.086Z,99379.50
2023-05-30T06:54:40.481Z,99375.72
2023-05-30T06:57:07.724Z,99369.63
2023-05-30T06:59:36.465Z,99377.56
2023-05-30T07:02:03.593Z,99366.94
2023-05-30T07:04:30.867Z,99372.00
2023-05-30T07:06:58.187Z,99376.25
2023-05-30T07:09:25.242Z,99368.63
2023-05-30T07:11:55.898Z,99360.50
2023-05-30T07:14:23.240Z,99362.66
2023-05-30T07:16:50.177Z,99363.84
2023-05-30T07:19:17.177Z,99361.06
2023-05-30T07:22:03.086Z,99349.56
2023-05-30T07:24:33.127Z,99350.47
2023-05-30T07:27:00.212Z,99341.03
2023-05-30T07:29:27.527Z,99345.44
2023-05-30T07:31:54.670Z,99345.84
2023-05-30T07:34:23.229Z,99354.94
2023-05-30T07:36:50.113Z,99347.44
2023-05-30T07:39:17.217Z,99344.19
2023-05-30T07:41:46.790Z,99340.19
2023-05-30T07:44:13.789Z,99328.50
2023-05-30T07:46:43.208Z,99325.94
2023-05-30T07:49:10.428Z,99334.47
2023-05-30T07:51:37.470Z,99334.81
2023-05-30T07:54:04.448Z,99337.63
2023-05-30T07:56:31.338Z,99323.66
2023-05-30T07:59:01.150Z,99320.69
2023-05-30T08:01:28.840Z,99314.09
2023-05-30T08:03:56.029Z,99314.31
2023-05-30T08:06:23.169Z,99316.06
2023-05-30T08:08:50.162Z,99320.50
2023-05-30T08:11:17.228Z,99307.09
2023-05-30T08:13:48.292Z,99308.69
2023-05-30T08:16:15.651Z,99305.00
2023-05-30T08:18:43.936Z,99306.31
2023-05-30T08:21:11.166Z,99307.00
2023-05-30T08:23:40.885Z,99301.94
2023-05-30T08:26:10.272Z,99314.06
2023-05-30T08:28:37.162Z,99314.25
2023-05-30T08:31:05.519Z,99299.00
2023-05-30T08:33:33.918Z,99297.41
2023-05-30T08:36:02.238Z,99293.97
2023-05-30T08:38:32.567Z,99302.38
2023-05-30T08:41:00.913Z,99290.94
2023-05-30T08:43:38.372Z,99297.75
2023-05-30T08:46:08.453Z,99279.00
2023-05-30T08:48:42.858Z,99283.66
2023-05-30T08:51:18.098Z,99279.19
2023-05-30T08:53:55.936Z,99281.09
2023-05-30T08:56:57.329Z,99275.84
2023-05-30T08:59:44.702Z,99276.03
2023-05-30T09:02:29.042Z,99266.81
2023-05-30T09:04:58.832Z,99277.75
2023-05-30T09:07:29.046Z,99263.84
2023-05-30T09:09:56.106Z,99269.06
2023-05-30T09:12:23.593Z,99271.69
2023-05-30T09:14:50.555Z,99277.91
2023-05-30T09:17:17.478Z,99268.91
2023-05-30T09:19:45.727Z,99264.50
2023-05-30T09:22:17.974Z,99268.56
2023-05-30T09:24:58.073Z,99261.50
2023-05-30T09:27:25.979Z,99257.72
2023-05-30T09:29:53.301Z,99258.97
2023-05-30T09:32:23.914Z,99259.03
2023-05-30T09:34:54.788Z,99248.78
2023-05-30T09:37:21.940Z,99251.72
2023-05-30T09:40:15.839Z,99232.75
2023-05-30T09:42:43.748Z,99238.28
2023-05-30T09:45:11.739Z,99226.56
2023-05-30T09:47:39.611Z,99227.94
2023-05-30T09:50:07.893Z,99232.25
2023-05-30T09:52:35.226Z,99225.78
2023-05-30T09:55:02.592Z,99225.13
2023-05-30T09:57:32.939Z,99223.03
2023-05-30T09:59:59.882Z,99221.50
2023-05-30T10:02:28.350Z,99224.50
2023-05-30T10:04:55.491Z,99228.91
2023-05-30T10:07:22.587Z,99224.41
2023-05-30T10:09:52.759Z,99218.16
2023-05-30T10:12:20.774Z,99213.47
2023-05-30T10:14:48.779Z,99213.63
2023-05-30T10:17:21.510Z,99209.44
2023-05-30T10:19:52.113Z,99212.19
2023-05-30T10:22:19.179Z,99204.34
2023-05-30T10:24:47.662Z,99211.25
2023-05-30T10:27:17.040Z,99204.94
2023-05-30T10:30:04.932Z,99205.13
2023-05-30T10:32:32.724Z,99203.56
2023-05-30T10:35:07.795Z,99206.94
2023-05-30T10:37:34.991Z,99203.34
2023-05-30T10:40:23.076Z,99201.31
2023-05-30T10:42:49.988Z,99203.78
2023-05-30T10:45:22.451Z,99193.91
2023-05-30T10:48:14.820Z,99185.53
2023-05-30T10:50:43.257Z,99185.19
2023-05-30T10:53:25.657Z,99180.41
2023-05-30T10:55:52.688Z,99185.78
2023-05-30T10:58:39.061Z,99177.41
2023-05-30T11:01:28.926Z,99162.78
2023-05-30T11:03:56.647Z,99161.97
2023-05-30T11:06:26.741Z,99154.16
2023-05-30T11:08:54.948Z,99141.81
2023-05-30T11:11:22.621Z,99144.28
2023-05-30T11:13:50.004Z,99161.19
2023-05-30T11:16:24.618Z,99159.94
2023-05-30T11:19:00.051Z,99153.66
2023-05-30T11:21:46.290Z,99158.66
2023-05-30T11:24:22.042Z,99153.66
2023-05-30T11:26:59.575Z,99146.91
2023-05-30T11:29:32.755Z,99149.69
2023-05-30T11:32:00.287Z,99138.66
2023-05-30T11:34:30.457Z,99148.03
2023-05-30T11:36:57.911Z,99136.09
2023-05-30T11:39:28.232Z,99129.81
2023-05-30T11:41:55.735Z,99142.63
2023-05-30T11:44:23.330Z,99117.25
2023-05-30T11:47:20.742Z,99121.94
2023-05-30T11:49:56.479Z,99123.13
2023-05-30T11:52:23.568Z,99127.19
2023-05-30T11:54:50.672Z,99126.84
2023-05-30T11:57:22.390Z,99129.63
2023-05-30T11:59:49.948Z,99116.81
2023-05-30T12:02:16.894Z,99118.03
2023-05-30T12:04:47.025Z,99123.13
2023-05-30T12:07:15.772Z,99119.50
2023-05-30T12:10:07.816Z,99111.41
2023-05-30T12:12:34.911Z,99111.09
2023-05-30T12:15:03.303Z,99114.72
2023-05-30T12:17:39.951Z,99116.00
2023-05-30T12:20:11.832Z,99108.03
2023-05-30T12:22:45.765Z,99096.00
2023-05-30T12:25:15.224Z,99091.22
2023-05-30T12:27:45.817Z,99097.19
2023-05-30T12:30:16.614Z,99087.97
2023-05-30T12:33:16.596Z,99098.56
2023-05-30T12:35:43.729Z,99090.97
2023-05-30T12:40:53.388Z,99074.03
2023-05-30T12:43:29.194Z,99091.25
2023-05-30T12:46:05.642Z,99083.84
2023-05-30T12:48:37.071Z,99076.47
2023-05-30T12:51:11.815Z,99075.03
2023-05-30T12:53:38.887Z,99082.78
2023-05-30T12:56:06.852Z,99088.94
2023-05-30T12:58:33.841Z,99075.25
2023-05-30T13:01:01.683Z,99082.38
2023-05-30T13:03:31.675Z,99073.22
2023-05-30T13:05:58.703Z,99069.59
2023-05-30T13:08:25.843Z,99070.88
2023-05-30T13:10:53.360Z,99077.59
2023-05-30T13:13:20.674Z,99077.66
2023-05-30T13:15:47.873Z,99069.44
2023-05-30T13:18:15.299Z,99058.03
2023-05-30T13:20:42.347Z,99074.03
2023-05-30T13:23:11.290Z,99073.66
2023-05-30T13:25:40.105Z,99068.31
2023-05-30T13:28:12.156Z,99069.75
2023-05-30T13:30:46.648Z,99069.25
2023-05-30T13:33:13.779Z,99059.75
2023-05-30T13:35:43.368Z,99061.94
2023-05-30T13:38:13.430Z,99064.09
2023-05-30T13:40:42.372Z,99055.28
2023-05-30T13:43:14.256Z,99051.63
2023-05-30T13:45:42.734Z,99063.31
2023-05-30T13:48:09.931Z,99068.88
2023-05-30T13:50:49.772Z,99053.28
2023-05-30T13:53:20.572Z,99052.03
2023-05-30T13:55:52.275Z,99046.97
2023-05-30T13:58:20.054Z,99049.88
2023-05-30T14:01:01.618Z,99053.59
2023-05-30T14:04:11.865Z,99063.28
2023-05-30T14:06:39.700Z,99046.81
2023-05-30T14:09:06.946Z,99046.31
2023-05-30T14:11:34.452Z,99040.22
2023-05-30T14:14:08.754Z,99053.84
2023-05-30T14:16:40.873Z,99045.97
2023-05-30T14:19:44.924Z,99052.59
2023-05-30T14:22:37.675Z,99047.97
2023-05-30T14:25:09.920Z,99045.47
2023-05-30T14:27:37.106Z,99047.22
2023-05-30T14:30:22.620Z,99040.56
2023-05-30T14:32:50.646Z,99046.91
2023-05-30T14:35:17.839Z,99031.28
2023-05-30T14:37:46.134Z,99032.75
2023-05-30T14:40:31.524Z,99030.00
2023-05-30T14:43:28.502Z,99033.56
2023-05-30T14:53:56.771Z,99026.66
2023-05-30T14:56:26.836Z,99029.06
2023-05-30T14:58:53.923Z,99013.69
2023-05-30T15:01:45.284Z,99018.81
2023-05-30T15:04:30.964Z,99017.59
2023-05-30T15:07:17.298Z,99013.84
2023-05-30T15:14:15.189Z,99016.03
2023-05-30T15:16:42.309Z,99008.38
2023-05-30T15:19:09.415Z,99018.75
2023-05-30T15:21:36.383Z,99014.72
2023-05-30T15:24:04.386Z,99012.56
2023-05-30T15:29:40.722Z,99013.03
2023-05-30T15:32:09.127Z,99012.72
2023-05-30T15:34:43.733Z,99003.31
2023-05-30T15:37:10.944Z,98992.69
2023-05-30T15:39:38.735Z,99002.00
2023-05-30T15:42:11.622Z,98997.84
2023-05-30T15:44:41.869Z,98996.28
2023-05-30T15:47:09.280Z,98992.47
2023-05-30T15:50:05.377Z,98992.59
2023-05-30T15:52:35.243Z,98989.34
2023-05-30T15:55:05.682Z,98990.53
2023-05-30T15:57:36.273Z,99002.34
2023-05-30T16:00:03.476Z,98988.75
2023-05-30T16:02:39.685Z,98994.00
2023-05-30T16:05:10.099Z,98993.84
2023-05-30T16:07:37.157Z,98999.22
2023-05-30T16:10:07.012Z,99001.50
2023-05-30T16:12:33.915Z,99000.22
2023-05-30T16:15:01.009Z,98995.22
2023-05-30T16:17:33.723Z,99002.41
2023-05-30T16:20:00.924Z,99003.38
2023-05-30T16:22:27.901Z,98999.72
2023-05-30T16:24:55.107Z,98993.81
2023-05-30T16:27:23.683Z,99002.50
2023-05-30T16:29:52.063Z,98993.59
2023-05-30T16:32:22.938Z,98999.91
2023-05-30T16:34:50.521Z,99002.28
2023-05-30T16:37:18.946Z,99001.97
2023-05-30T16:40:13.851Z,99004.75
2023-05-30T16:42:40.927Z,98995.75
2023-05-30T16:45:08.173Z,98994.03
2023-05-30T16:47:36.143Z,98995.22
2023-05-30T16:50:05.230Z,98991.50
2023-05-30T16:55:23.269Z,98994.78
2023-05-30T16:58:02.848Z,98989.53
2023-05-30T17:00:37.561Z,98992.84
2023-05-30T17:03:05.133Z,98989.19
2023-05-30T17:05:34.758Z,98985.84
2023-05-30T17:08:01.861Z,98983.84
2023-05-30T17:10:33.657Z,98991.78
2023-05-30T17:13:00.637Z,98984.06
2023-05-30T17:15:27.732Z,98988.66
2023-05-30T17:17:57.636Z,98990.75
2023-05-30T17:20:27.454Z,98982.94
2023-05-30T17:22:57.588Z,98980.00
2023-05-30T17:25:25.730Z,98974.13
2023-05-30T17:28:18.492Z,98978.78
2023-05-30T17:34:06.449Z,98969.63
2023-05-30T17:36:36.422Z,98967.31
2023-05-30T17:39:05.780Z,98969.16
2023-05-30T17:41:32.833Z,98963.44
2023-05-30T17:43:59.906Z,98974.19
2023-05-30T17:46:27.362Z,98961.81
2023-05-30T17:48:55.106Z,98964.53
2023-05-30T17:51:22.649Z,98963.56
2023-05-30T17:53:55.701Z,98964.53
2023-05-30T17:56:24.766Z,98969.84
2023-05-30T17:58:52.380Z,98965.03
2023-05-30T18:01:19.712Z,98962.47
2023-05-30T18:03:47.874Z,98952.59
2023-05-30T18:06:26.377Z,98963.41
2023-05-30T18:08:54.895Z,98956.16
2023-05-30T18:11:22.589Z,98960.31
2023-05-30T18:13:49.816Z,98962.00
2023-05-30T18:16:17.094Z,98956.66
2023-05-30T18:18:47.592Z,98960.34
2023-05-30T18:21:14.625Z,98954.16
2023-05-30T18:23:42.286Z,98949.66
2023-05-30T18:26:18.641Z,98948.88
2023-05-30T18:31:33.421Z,98948.78
2023-05-30T18:34:04.288Z,98941.53
2023-05-30T18:36:31.760Z,98939.75
2023-05-30T18:39:00.612Z,98936.56
2023-05-30T18:41:28.852Z,98941.53
2023-05-30T18:43:57.662Z,98927.97
2023-05-30T18:46:25.003Z,98930.81
2023-05-30T18:48:54.748Z,98928.72
2023-05-30T18:51:21.951Z,98924.44
2023-05-30T18:53:50.474Z,98920.66
2023-05-30T18:56:17.905Z,98916.06
2023-05-30T18:58:45.113Z,98923.75
2023-05-30T19:01:12.589Z,98916.47
2023-05-30T19:03:42.783Z,98918.94
2023-05-30T19:06:10.244Z,98910.59
2023-05-30T19:08:37.372Z,98914.69
2023-05-30T19:11:04.385Z,98906.53
2023-05-30T19:13:33.579Z,98905.81
2023-05-30T19:16:01.250Z,98908.78
2023-05-30T19:18:31.102Z,98895.59
2023-05-30T19:20:59.297Z,98904.94
2023-05-30T19:23:30.147Z,98908.22
2023-05-30T19:25:58.928Z,98896.19
2023-05-30T19:28:39.295Z,98893.81
2023-05-30T19:31:11.999Z,98903.97
2023-05-30T19:33:42.870Z,98901.56
2023-05-30T19:36:10.860Z,98897.56
2023-05-30T19:38:37.983Z,98901.41
2023-05-30T19:41:07.498Z,98901.97
2023-05-30T19:43:35.385Z,98902.00
2023-05-30T19:46:13.360Z,98894.97
2023-05-30T19:48:40.680Z,98893.88
2023-05-30T19:51:07.913Z,98886.84
2023-05-30T19:53:34.982Z,98898.00
2023-05-30T19:56:02.050Z,98890.41
2023-05-30T19:58:29.396Z,98898.38
2023-05-30T20:01:02.018Z,98891.88
2023-05-30T20:03:29.262Z,98892.66
2023-05-30T20:05:56.287Z,98901.41
2023-05-30T20:08:28.150Z,98893.50
2023-05-30T20:13:38.850Z,98891.66
2023-05-30T20:16:06.658Z,98894.34
2023-05-30T20:18:33.794Z,98892.72
2023-05-30T20:21:01.433Z,98887.81
2023-05-30T20:23:31.611Z,98885.66
2023-05-30T20:25:58.690Z,98881.31
2023-05-30T20:28:28.334Z,98877.22
2023-05-30T20:30:59.425Z,98871.53
2023-05-30T20:33:26.680Z,98878.88
2023-05-30T20:35:56.113Z,98875.06
2023-05-30T20:38:30.270Z,98869.09
2023-05-30T20:41:00.689Z,98863.66
2023-05-30T20:43:28.197Z,98858.25
2023-05-30T20:45:56.214Z,98860.97
2023-05-30T20:48:23.257Z,98859.38
2023-05-30T20:50:50.254Z,98851.22
2023-05-30T20:53:17.504Z,98853.97
2023-05-30T20:55:46.736Z,98858.63
2023-05-30T20:58:20.933Z,98854.28
2023-05-30T21:00:48.268Z,98848.31
2023-05-30T21:03:16.381Z,98852.94
2023-05-30T21:05:43.648Z,98856.81
2023-05-30T21:08:10.889Z,98849.47
2023-05-30T21:10:38.054Z,98859.81
2023-05-30T21:13:05.051Z,98856.53
2023-05-30T21:15:32.006Z,98858.69
2023-05-30T21:17:58.920Z,98851.94
2023-05-30T21:20:26.869Z,98853.88
2023-05-30T21:23:12.755Z,98853.66
2023-05-30T21:25:41.092Z,98854.22
2023-05-30T21:28:08.063Z,98854.25
2023-05-30T21:30:35.108Z,98845.28
2023-05-30T21:33:20.508Z,98847.19
2023-05-30T21:35:47.535Z,98840.41
2023-05-30T21:38:32.920Z,98833.63
2023-05-30T21:41:21.574Z,98835.25
2023-05-30T21:43:48.709Z,98827.94
2023-05-30T21:46:16.065Z,98833.91
2023-05-30T21:48:43.214Z,98829.84
2023-05-30T21:51:10.297Z,98823.34
2023-05-30T21:53:37.683Z,98816.56
2023-05-30T21:56:04.924Z,98818.44
2023-05-30T21:58:34.479Z,98817.38
2023-05-30T22:01:02.403Z,98813.00
2023-05-30T22:03:31.495Z,98809.75
2023-05-30T22:06:01.362Z,98812.75
2023-05-30T22:08:28.686Z,98813.81
2023-05-30T22:10:56.097Z,98802.16
2023-05-30T22:13:23.033Z,98802.16
2023-05-30T22:15:50.007Z,98798.88
2023-05-30T22:18:17.355Z,98798.59
2023-05-30T22:20:44.343Z,98792.91
2023-05-30T22:23:11.274Z,98796.44
2023-05-30T22:25:38.218Z,98796.97
2023-05-30T22:28:05.316Z,98793.41
2023-05-30T22:30:32.264Z,98798.31
2023-05-30T22:32:59.275Z,98787.94
2023-05-30T22:35:26.141Z,98802.81
2023-05-30T22:37:53.032Z,98804.94
2023-05-30T22:40:23.146Z,98806.81
2023-05-30T22:42:50.103Z,98798.41
2023-05-30T22:45:17.096Z,98798.09
2023-05-30T22:47:44.047Z,98807.31
2023-05-30T22:50:11.769Z,98798.09
2023-05-30T22:52:38.708Z,98799.13
2023-05-30T22:55:06.125Z,98800.16
2023-05-30T22:57:33.072Z,98802.34
2023-05-30T23:00:05.360Z,98823.16
2023-05-30T23:02:32.536Z,98828.56
2023-05-30T23:05:00.762Z,98817.47
2023-05-30T23:07:27.716Z,98817.19
2023-05-30T23:09:54.611Z,98813.94
2023-05-30T23:12:21.494Z,98816.31
2023-05-30T23:14:48.471Z,98815.47
2023-05-30T23:17:15.751Z,98811.13
2023-05-30T23:19:42.689Z,98818.69
2023-05-30T23:22:09.772Z,98819.44
2023-05-30T23:24:36.716Z,98813.94
2023-05-30T23:27:03.726Z,98804.22
2023-05-30T23:29:30.673Z,98813.34
2023-05-30T23:31:57.817Z,98809.78
2023-05-30T23:34:25.059Z,98804.59
2023-05-30T23:36:52.088Z,98801.81
2023-05-30T23:39:19.073Z,98802.28
2023-05-30T23:41:46.160Z,98795.22
2023-05-30T23:44:14.509Z,98797.84
2023-05-30T23:46:41.563Z,98791.31
2023-05-30T23:49:09.078Z,98792.16
2023-05-30T23:51:38.261Z,98801.88
2023-05-30T23:54:05.646Z,98800.53
2023-05-30T23:56:32.777Z,98806.75
2023-05-30T23:58:59.650Z,98818.63
